createdAt,value
2023-04-15T00:02:22.250Z,97783.69
2023-04-15T00:04:50.368Z,97778.53
2023-04-15T00:07:18.277Z,97780.59
2023-04-15T00:09:46.113Z,97781.22
2023-04-15T00:12:13.926Z,97781.66
2023-04-15T00:14:41.939Z,97784.97
2023-04-15T00:17:09.881Z,97780.91
2023-04-15T00:19:38.943Z,97785.03
2023-04-15T00:22:09.836Z,97787.19
2023-04-15T00:24:37.875Z,97779.75
2023-04-15T00:27:05.808Z,97782.16
2023-04-15T00:29:35.672Z,97785.03
2023-04-15T00:32:03.616Z,97781.28
2023-04-15T00:34:32.022Z,97786.06
2023-04-15T00:37:01.345Z,97769.72
2023-04-15T00:39:29.716Z,97774.09
2023-04-15T00:41:58.636Z,97774.22
2023-04-15T00:44:26.780Z,97772.16
2023-04-15T00:46:55.340Z,97765.88
2023-04-15T00:49:25.946Z,97771.56
2023-04-15T00:51:53.761Z,97782.59
2023-04-15T00:54:23.443Z,97768.28
2023-04-15T00:56:52.089Z,97778.03
2023-04-15T00:59:20.110Z,97778.44
2023-04-15T01:01:48.631Z,97773.09
2023-04-15T01:04:17.272Z,97773.41
2023-04-15T01:06:45.147Z,97781.25
2023-04-15T01:09:12.928Z,97787.34
2023-04-15T01:11:42.073Z,97788.50
2023-04-15T01:14:10.376Z,97782.19
2023-04-15T01:16:39.743Z,97783.09
2023-04-15T01:19:10.085Z,97781.50
2023-04-15T01:21:38.282Z,97785.81
2023-04-15T01:24:10.838Z,97793.72
2023-04-15T01:26:42.325Z,97786.53
2023-04-15T01:29:10.881Z,97792.72
2023-04-15T01:31:38.701Z,97788.78
2023-04-15T01:34:06.959Z,97785.84
2023-04-15T01:36:35.309Z,97784.97
2023-04-15T01:39:03.325Z,97779.00
2023-04-15T01:41:31.112Z,97779.53
2023-04-15T01:44:00.654Z,97774.38
2023-04-15T01:46:28.442Z,97766.28
2023-04-15T01:48:56.586Z,97770.88
2023-04-15T01:51:26.647Z,97773.06
2023-04-15T01:53:56.988Z,97772.69
2023-04-15T01:56:25.496Z,97775.75
2023-04-15T01:58:53.805Z,97777.66
2023-04-15T02:01:23.176Z,97777.47
2023-04-15T02:03:51.259Z,97769.84
2023-04-15T02:06:19.324Z,97763.81
2023-04-15T02:08:50.026Z,97769.06
2023-04-15T02:11:18.249Z,97766.47
2023-04-15T02:13:46.556Z,97766.63
2023-04-15T02:16:18.382Z,97766.38
2023-04-15T02:18:48.218Z,97764.75
2023-04-15T02:21:16.046Z,97761.72
2023-04-15T02:23:44.029Z,97762.56
2023-04-15T02:26:14.165Z,97765.25
2023-04-15T02:28:41.959Z,97769.78
2023-04-15T02:31:09.804Z,97756.47
2023-04-15T02:33:37.788Z,97756.72
2023-04-15T02:36:07.849Z,97759.63
2023-04-15T02:38:35.596Z,97757.34
2023-04-15T02:41:03.305Z,97756.44
2023-04-15T02:43:36.441Z,97761.34
2023-04-15T02:46:04.529Z,97759.81
2023-04-15T02:48:32.873Z,97764.34
2023-04-15T02:51:16.081Z,97758.44
2023-04-15T02:53:44.107Z,97764.63
2023-04-15T02:56:12.599Z,97762.72
2023-04-15T02:58:43.350Z,97760.63
2023-04-15T03:01:11.454Z,97764.34
2023-04-15T03:03:40.087Z,97766.94
2023-04-15T03:06:08.916Z,97765.63
2023-04-15T03:08:38.172Z,97763.66
2023-04-15T03:11:06.247Z,97765.97
2023-04-15T03:13:36.285Z,97758.88
2023-04-15T03:16:11.661Z,97751.25
2023-04-15T03:18:39.892Z,97751.47
2023-04-15T03:21:08.584Z,97753.34
2023-04-15T03:23:40.309Z,97749.81
2023-04-15T03:26:08.022Z,97751.31
2023-04-15T03:28:35.816Z,97760.88
2023-04-15T03:31:03.708Z,97763.22
2023-04-15T03:33:31.919Z,97756.91
2023-04-15T03:36:00.599Z,97759.25
2023-04-15T03:38:31.431Z,97755.88
2023-04-15T03:41:00.697Z,97765.56
2023-04-15T03:43:28.351Z,97760.34
2023-04-15T03:45:56.252Z,97764.94
2023-04-15T03:48:24.139Z,97760.38
2023-04-15T03:50:52.096Z,97762.97
2023-04-15T03:53:19.875Z,97755.25
2023-04-15T03:55:47.771Z,97758.38
2023-04-15T03:58:16.806Z,97747.53
2023-04-15T04:00:44.782Z,97748.63
2023-04-15T04:03:12.826Z,97748.38
2023-04-15T04:05:41.630Z,97750.78
2023-04-15T04:08:09.356Z,97757.22
2023-04-15T04:10:37.335Z,97767.66
2023-04-15T04:13:05.122Z,97766.03
2023-04-15T04:15:34.289Z,97765.84
2023-04-15T04:18:02.073Z,97762.09
2023-04-15T04:20:31.946Z,97771.75
2023-04-15T04:22:59.856Z,97772.25
2023-04-15T04:25:27.515Z,97769.59
2023-04-15T04:27:55.264Z,97777.06
2023-04-15T04:30:22.962Z,97778.31
2023-04-15T04:32:52.486Z,97771.94
2023-04-15T04:35:20.686Z,97778.81
2023-04-15T04:37:48.456Z,97777.88
2023-04-15T04:40:16.744Z,97777.88
2023-04-15T04:42:45.024Z,97777.03
2023-04-15T04:45:12.828Z,97781.19
2023-04-15T04:47:40.735Z,97772.53
2023-04-15T04:50:10.895Z,97794.91
2023-04-15T04:52:39.162Z,97791.44
2023-04-15T04:55:08.559Z,97785.72
2023-04-15T04:57:37.827Z,97786.63
2023-04-15T05:00:08.332Z,97785.84
2023-04-15T05:02:36.810Z,97783.34
2023-04-15T05:05:06.993Z,97790.78
2023-04-15T05:07:37.302Z,97789.88
2023-04-15T05:10:05.919Z,97789.00
2023-04-15T05:12:34.288Z,97792.38
2023-04-15T05:15:02.063Z,97798.41
2023-04-15T05:17:31.389Z,97796.81
2023-04-15T05:20:01.328Z,97788.84
2023-04-15T05:22:29.155Z,97784.91
2023-04-15T05:24:58.253Z,97781.34
2023-04-15T05:27:28.917Z,97788.50
2023-04-15T05:29:57.188Z,97788.94
2023-04-15T05:32:25.018Z,97800.53
2023-04-15T05:34:52.755Z,97795.34
2023-04-15T05:37:22.331Z,97792.41
2023-04-15T05:39:49.999Z,97789.22
2023-04-15T05:42:19.193Z,97791.13
2023-04-15T05:44:47.002Z,97795.19
2023-04-15T05:47:14.906Z,97785.16
2023-04-15T05:49:44.186Z,97788.13
2023-04-15T05:52:11.876Z,97794.31
2023-04-15T05:54:39.658Z,97791.09
2023-04-15T05:57:07.875Z,97797.31
2023-04-15T05:59:39.513Z,97805.81
2023-04-15T06:02:10.914Z,97806.13
2023-04-15T06:04:39.449Z,97807.59
2023-04-15T06:07:07.631Z,97807.00
2023-04-15T06:09:36.202Z,97802.69
2023-04-15T06:12:04.298Z,97813.00
2023-04-15T06:14:32.000Z,97804.69
2023-04-15T06:17:01.163Z,97812.44
2023-04-15T06:19:29.430Z,97816.25
2023-04-15T06:21:57.299Z,97815.69
2023-04-15T06:24:25.242Z,97817.31
2023-04-15T06:26:54.974Z,97820.53
2023-04-15T06:29:22.693Z,97819.00
2023-04-15T06:31:50.561Z,97824.84
2023-04-15T06:34:19.906Z,97819.00
2023-04-15T06:36:48.184Z,97826.06
2023-04-15T06:39:16.210Z,97818.00
2023-04-15T06:41:44.162Z,97835.06
2023-04-15T06:44:16.012Z,97831.31
2023-04-15T06:46:43.873Z,97830.84
2023-04-15T06:49:12.409Z,97834.53
2023-04-15T06:51:41.680Z,97840.28
2023-04-15T06:54:09.547Z,97833.81
2023-04-15T06:56:37.356Z,97832.00
2023-04-15T06:59:05.157Z,97838.50
2023-04-15T07:01:33.008Z,97839.25
2023-04-15T07:04:01.278Z,97841.97
2023-04-15T07:06:29.126Z,97837.28
2023-04-15T07:08:58.425Z,97835.84
2023-04-15T07:11:27.394Z,97838.19
2023-04-15T07:13:55.174Z,97844.91
2023-04-15T07:16:23.066Z,97827.72
2023-04-15T07:18:51.015Z,97826.97
2023-04-15T07:21:18.824Z,97823.69
2023-04-15T07:23:46.604Z,97821.59
2023-04-15T07:26:15.852Z,97818.06
2023-04-15T07:28:43.702Z,97819.22
2023-04-15T07:31:11.449Z,97819.88
2023-04-15T07:33:39.193Z,97822.22
2023-04-15T07:36:10.580Z,97824.50
2023-04-15T07:38:38.360Z,97820.16
2023-04-15T07:41:06.299Z,97819.22
2023-04-15T07:43:35.404Z,97815.84
2023-04-15T07:46:03.385Z,97827.63
2023-04-15T07:48:31.469Z,97817.41
2023-04-15T07:51:00.558Z,97818.06
2023-04-15T07:53:28.352Z,97819.78
2023-04-15T07:55:56.154Z,97817.66
2023-04-15T07:58:23.965Z,97819.63
2023-04-15T08:00:55.052Z,97814.53
2023-04-15T08:03:23.620Z,97815.06
2023-04-15T08:05:51.588Z,97811.00
2023-04-15T08:08:19.345Z,97803.41
2023-04-15T08:10:47.197Z,97806.41
2023-04-15T08:13:14.979Z,97813.22
2023-04-15T08:15:43.267Z,97808.78
2023-04-15T08:18:12.395Z,97811.50
2023-04-15T08:20:40.169Z,97811.44
2023-04-15T08:23:08.619Z,97812.25
2023-04-15T08:25:36.873Z,97823.69
2023-04-15T08:28:05.540Z,97814.50
2023-04-15T08:30:33.391Z,97813.41
2023-04-15T08:33:03.571Z,97809.06
2023-04-15T08:35:34.705Z,97814.22
2023-04-15T08:38:02.750Z,97817.88
2023-04-15T08:40:43.758Z,97812.94
2023-04-15T08:43:15.790Z,97818.50
2023-04-15T08:45:44.438Z,97825.03
2023-04-15T08:48:17.629Z,97821.31
2023-04-15T08:50:47.526Z,97813.03
2023-04-15T08:53:16.002Z,97817.81
2023-04-15T08:55:45.783Z,97804.28
2023-04-15T08:58:14.449Z,97800.84
2023-04-15T09:00:42.868Z,97809.09
2023-04-15T09:03:13.729Z,97802.84
2023-04-15T09:05:41.554Z,97804.13
2023-04-15T09:08:12.176Z,97811.09
2023-04-15T09:10:39.989Z,97810.84
2023-04-15T09:13:07.964Z,97811.66
2023-04-15T09:15:39.825Z,97806.56
2023-04-15T09:18:07.932Z,97808.75
2023-04-15T09:20:41.050Z,97811.41
2023-04-15T09:23:14.952Z,97809.88
2023-04-15T09:25:43.394Z,97811.38
2023-04-15T09:28:11.365Z,97817.13
2023-04-15T09:30:39.255Z,97818.16
2023-04-15T09:33:08.653Z,97821.38
2023-04-15T09:35:38.741Z,97815.72
2023-04-15T09:38:08.129Z,97821.97
2023-04-15T09:40:39.167Z,97817.13
2023-04-15T09:43:07.859Z,97828.47
2023-04-15T09:45:37.450Z,97816.97
2023-04-15T09:48:18.217Z,97824.19
2023-04-15T09:50:46.189Z,97815.84
2023-04-15T09:53:17.619Z,97826.97
2023-04-15T09:55:48.102Z,97829.75
2023-04-15T09:58:23.510Z,97829.31
2023-04-15T10:00:52.883Z,97830.03
2023-04-15T10:03:22.812Z,97836.56
2023-04-15T10:05:52.844Z,97829.63
2023-04-15T10:08:21.931Z,97835.50
2023-04-15T10:10:51.860Z,97831.22
2023-04-15T10:13:22.428Z,97824.28
2023-04-15T10:15:54.407Z,97832.78
2023-04-15T10:18:24.843Z,97837.94
2023-04-15T10:20:53.579Z,97836.56
2023-04-15T10:23:21.866Z,97834.41
2023-04-15T10:25:53.623Z,97821.06
2023-04-15T10:28:22.854Z,97832.81
2023-04-15T10:30:50.855Z,97834.81
2023-04-15T10:33:20.942Z,97843.88
2023-04-15T10:35:50.207Z,97840.38
2023-04-15T10:38:37.503Z,97836.97
2023-04-15T10:41:20.165Z,97851.34
2023-04-15T10:43:54.002Z,97838.50
2023-04-15T10:46:35.277Z,97849.06
2023-04-15T10:49:08.946Z,97851.19
2023-04-15T10:51:41.569Z,97851.03
2023-04-15T10:54:14.357Z,97850.78
2023-04-15T10:56:44.774Z,97856.16
2023-04-15T10:59:12.646Z,97852.31
2023-04-15T11:01:56.723Z,97856.59
2023-04-15T11:04:43.428Z,97848.69
2023-04-15T11:07:11.165Z,97853.91
2023-04-15T11:09:41.275Z,97858.81
2023-04-15T11:12:11.990Z,97856.72
2023-04-15T11:14:43.320Z,97857.31
2023-04-15T11:17:11.222Z,97854.13
2023-04-15T11:19:39.465Z,97863.16
2023-04-15T11:22:10.759Z,97862.50
2023-04-15T11:24:47.897Z,97855.56
2023-04-15T11:27:23.292Z,97854.75
2023-04-15T11:29:51.337Z,97858.63
2023-04-15T11:32:22.892Z,97852.63
2023-04-15T11:34:53.183Z,97852.56
2023-04-15T11:37:29.703Z,97849.94
2023-04-15T11:39:57.463Z,97851.69
2023-04-15T11:42:31.574Z,97846.47
2023-04-15T11:45:12.300Z,97853.56
2023-04-15T11:47:43.132Z,97864.53
2023-04-15T11:50:18.802Z,97864.53
2023-04-15T11:52:56.861Z,97873.94
2023-04-15T11:55:25.252Z,97883.97
2023-04-15T11:58:08.130Z,97907.59
2023-04-15T12:00:37.957Z,97931.72
2023-04-15T12:03:25.471Z,97952.81
2023-04-15T12:06:07.351Z,97969.28
2023-04-15T12:09:12.205Z,97966.06
2023-04-15T12:11:43.060Z,97985.75
2023-04-15T12:14:14.646Z,97946.41
2023-04-15T12:16:49.385Z,97950.06
2023-04-15T12:19:23.425Z,97952.81
2023-04-15T12:21:51.486Z,97956.00
2023-04-15T12:24:22.651Z,97961.91
2023-04-15T12:26:52.377Z,97972.97
2023-04-15T12:29:25.877Z,97972.56
2023-04-15T12:31:54.998Z,97964.28
2023-04-15T12:34:30.393Z,97973.38
2023-04-15T12:36:59.552Z,97970.19
2023-04-15T12:39:30.682Z,97978.41
2023-04-15T12:41:59.315Z,97973.28
2023-04-15T12:44:29.510Z,97975.31
2023-04-15T12:46:58.027Z,97975.88
2023-04-15T12:49:26.719Z,97978.94
2023-04-15T12:51:55.890Z,97976.22
2023-04-15T12:54:24.035Z,97982.13
2023-04-15T12:56:52.274Z,97987.50
2023-04-15T12:59:19.977Z,97993.19
2023-04-15T13:01:49.944Z,97985.59
2023-04-15T13:04:22.213Z,97993.13
2023-04-15T13:06:50.482Z,98002.88
2023-04-15T13:09:18.180Z,97996.94
2023-04-15T13:11:46.305Z,98008.25
2023-04-15T13:14:14.053Z,98002.72
2023-04-15T13:16:42.012Z,98007.75
2023-04-15T13:19:11.245Z,98013.03
2023-04-15T13:21:41.327Z,98017.72
2023-04-15T13:24:09.745Z,98008.53
2023-04-15T13:26:37.742Z,98014.94
2023-04-15T13:29:05.839Z,98018.72
2023-04-15T13:31:33.674Z,98022.50
2023-04-15T13:34:01.866Z,98022.59
2023-04-15T13:36:31.359Z,98016.03
2023-04-15T13:39:00.233Z,98031.94
2023-04-15T13:41:28.180Z,98031.44
2023-04-15T13:43:56.793Z,98035.50
2023-04-15T13:46:26.078Z,98038.31
2023-04-15T13:48:56.736Z,98045.84
2023-04-15T13:51:24.724Z,98039.81
2023-04-15T13:53:54.600Z,98046.34
2023-04-15T13:56:22.860Z,98057.69
2023-04-15T13:58:51.371Z,98057.22
2023-04-15T14:01:19.399Z,98056.16
2023-04-15T14:03:47.356Z,98063.16
2023-04-15T14:06:18.244Z,98059.84
2023-04-15T14:08:46.426Z,98060.75
2023-04-15T14:11:15.915Z,98067.34
2023-04-15T14:13:43.673Z,98059.03
2023-04-15T14:16:11.621Z,98063.41
2023-04-15T14:18:39.471Z,98063.81
2023-04-15T14:21:09.419Z,98079.19
2023-04-15T14:23:37.306Z,98078.78
2023-04-15T14:26:05.412Z,98076.06
2023-04-15T14:28:34.568Z,98084.38
2023-04-15T14:31:02.336Z,98087.94
2023-04-15T14:33:30.088Z,98091.00
2023-04-15T14:35:57.889Z,98097.34
2023-04-15T14:38:25.738Z,98102.09
2023-04-15T14:40:53.389Z,98107.50
2023-04-15T14:43:21.713Z,98108.34
2023-04-15T14:45:52.837Z,98122.28
2023-04-15T14:48:21.030Z,98132.88
2023-04-15T14:50:48.802Z,98136.69
2023-04-15T14:53:16.682Z,98140.50
2023-04-15T14:55:45.109Z,98136.75
2023-04-15T14:58:13.085Z,98137.91
2023-04-15T15:00:44.349Z,98128.78
2023-04-15T15:03:14.764Z,98140.81
2023-04-15T15:05:44.187Z,98138.88
2023-04-15T15:08:12.563Z,98140.03
2023-04-15T15:10:49.091Z,98132.19
2023-04-15T15:13:18.352Z,98142.72
2023-04-15T15:15:46.662Z,98136.50
2023-04-15T15:18:16.748Z,98137.66
2023-04-15T15:20:44.506Z,98136.50
2023-04-15T15:23:12.326Z,98149.13
2023-04-15T15:25:40.260Z,98139.28
2023-04-15T15:28:08.094Z,98157.31
2023-04-15T15:30:35.878Z,98164.09
2023-04-15T15:33:03.691Z,98172.00
2023-04-15T15:35:34.818Z,98181.47
2023-04-15T15:38:05.754Z,98180.59
2023-04-15T15:40:36.178Z,98186.56
2023-04-15T15:43:04.521Z,98176.69
2023-04-15T15:45:32.550Z,98193.50
2023-04-15T15:48:00.411Z,98197.41
2023-04-15T15:50:28.303Z,98211.41
2023-04-15T15:52:58.647Z,98207.13
2023-04-15T15:55:28.317Z,98217.06
2023-04-15T15:57:56.217Z,98218.84
2023-04-15T16:00:25.715Z,98214.56
2023-04-15T16:03:06.872Z,98222.50
2023-04-15T16:05:35.818Z,98231.41
2023-04-15T16:08:05.300Z,98233.38
2023-04-15T16:10:33.343Z,98230.00
2023-04-15T16:13:01.927Z,98245.38
2023-04-15T16:15:32.862Z,98243.16
2023-04-15T16:18:00.784Z,98244.19
2023-04-15T16:20:29.202Z,98252.81
2023-04-15T16:22:58.818Z,98253.94
2023-04-15T16:25:28.048Z,98261.03
2023-04-15T16:28:05.617Z,98275.81
2023-04-15T16:30:49.642Z,98273.72
2023-04-15T16:33:17.510Z,98276.91
2023-04-15T16:35:45.297Z,98270.31
2023-04-15T16:38:13.319Z,98280.13
2023-04-15T16:40:42.496Z,98282.09
2023-04-15T16:43:11.268Z,98281.41
2023-04-15T16:45:39.171Z,98295.78
2023-04-15T16:48:08.283Z,98292.94
2023-04-15T16:50:37.306Z,98297.69
2023-04-15T16:53:07.523Z,98307.34
2023-04-15T16:55:35.370Z,98320.91
2023-04-15T16:58:05.946Z,98324.06
2023-04-15T17:00:36.695Z,98321.91
2023-04-15T17:03:04.806Z,98318.16
2023-04-15T17:05:32.853Z,98318.66
2023-04-15T17:08:00.722Z,98324.78
2023-04-15T17:10:28.748Z,98325.34
2023-04-15T17:12:57.537Z,98327.16
2023-04-15T17:15:27.593Z,98334.06
2023-04-15T17:17:55.824Z,98333.50
2023-04-15T17:20:23.738Z,98336.16
2023-04-15T17:22:54.183Z,98349.19
2023-04-15T17:25:24.464Z,98352.34
2023-04-15T17:27:52.373Z,98348.59
2023-04-15T17:30:20.281Z,98357.16
2023-04-15T17:32:49.607Z,98364.72
2023-04-15T17:35:17.438Z,98361.34
2023-04-15T17:37:45.176Z,98372.16
2023-04-15T17:40:14.987Z,98376.72
2023-04-15T17:42:42.818Z,98386.25
2023-04-15T17:45:11.394Z,98380.13
2023-04-15T17:47:39.205Z,98381.81
2023-04-15T17:50:09.753Z,98387.97
2023-04-15T17:52:37.976Z,98399.31
2023-04-15T17:55:06.797Z,98396.63
2023-04-15T17:57:34.538Z,98396.81
2023-04-15T18:00:02.419Z,98398.19
2023-04-15T18:02:40.880Z,98406.09
2023-04-15T18:05:10.673Z,98417.53
2023-04-15T18:07:38.650Z,98411.59
2023-04-15T18:10:12.843Z,98414.91
2023-04-15T18:12:42.407Z,98423.81
2023-04-15T18:15:12.065Z,98420.06
2023-04-15T18:17:39.882Z,98430.19
2023-04-15T18:20:10.190Z,98422.44
2023-04-15T18:22:38.144Z,98426.34
2023-04-15T18:25:06.960Z,98438.03
2023-04-15T18:27:38.998Z,98433.69
2023-04-15T18:30:08.846Z,98439.81
2023-04-15T18:32:37.521Z,98444.59
2023-04-15T18:35:06.559Z,98448.66
2023-04-15T18:37:35.790Z,98453.56
2023-04-15T18:40:03.820Z,98461.00
2023-04-15T18:42:31.673Z,98459.91
2023-04-15T18:44:59.528Z,98455.38
2023-04-15T18:47:27.989Z,98472.88
2023-04-15T18:49:55.878Z,98470.94
2023-04-15T18:52:25.040Z,98473.50
2023-04-15T18:54:54.186Z,98479.31
2023-04-15T18:57:23.683Z,98482.59
2023-04-15T19:00:00.948Z,98482.06
2023-04-15T19:02:28.833Z,98480.69
2023-04-15T19:04:56.681Z,98485.84
2023-04-15T19:07:24.831Z,98491.97
2023-04-15T19:09:54.032Z,98495.72
2023-04-15T19:12:21.797Z,98496.28
2023-04-15T19:14:49.991Z,98500.38
2023-04-15T19:17:17.894Z,98501.69
2023-04-15T19:19:48.751Z,98498.50
2023-04-15T19:22:16.910Z,98514.44
2023-04-15T19:24:44.804Z,98502.66
2023-04-15T19:27:15.525Z,98510.72
2023-04-15T19:29:45.904Z,98508.69
2023-04-15T19:32:14.296Z,98516.22
2023-04-15T19:34:42.097Z,98513.31
2023-04-15T19:37:10.029Z,98519.56
2023-04-15T19:39:39.430Z,98518.13
2023-04-15T19:42:07.154Z,98522.34
2023-04-15T19:44:37.301Z,98530.97
2023-04-15T19:47:05.264Z,98524.75
2023-04-15T19:49:33.022Z,98526.25
2023-04-15T19:52:00.704Z,98519.13
2023-04-15T19:54:28.451Z,98526.06
2023-04-15T19:56:56.446Z,98526.09
2023-04-15T19:59:24.303Z,98530.00
2023-04-15T20:01:53.886Z,98538.31
2023-04-15T20:04:22.587Z,98533.22
2023-04-15T20:06:51.062Z,98531.88
2023-04-15T20:09:18.816Z,98537.16
2023-04-15T20:12:46.793Z,98530.34
2023-04-15T20:14:37.243Z,98541.47
2023-04-15T20:17:07.558Z,98536.63
2023-04-15T20:19:36.149Z,98536.00
2023-04-15T20:22:03.893Z,98542.75
2023-04-15T20:24:31.666Z,98532.94
2023-04-15T20:26:59.452Z,98541.97
2023-04-15T20:29:27.705Z,98534.69
2023-04-15T20:31:56.289Z,98536.94
2023-04-15T20:34:25.391Z,98544.97
2023-04-15T20:36:56.279Z,98551.44
2023-04-15T20:39:24.044Z,98544.00
2023-04-15T20:41:54.692Z,98545.31
2023-04-15T20:44:22.562Z,98539.81
2023-04-15T20:46:52.991Z,98550.63
2023-04-15T20:49:20.975Z,98547.94
2023-04-15T20:51:50.623Z,98545.81
2023-04-15T20:54:19.434Z,98543.25
2023-04-15T20:56:47.163Z,98547.38
2023-04-15T20:59:14.955Z,98554.28
2023-04-15T21:01:42.788Z,98558.47
2023-04-15T21:04:10.735Z,98560.88
2023-04-15T21:06:38.643Z,98558.34
2023-04-15T21:09:07.823Z,98561.25
2023-04-15T21:14:08.763Z,98562.56
2023-04-15T21:16:36.745Z,98568.47
2023-04-15T21:19:04.757Z,98572.56
2023-04-15T21:21:32.951Z,98579.69
2023-04-15T21:24:03.627Z,98576.28
2023-04-15T21:26:32.777Z,98579.72
2023-04-15T21:29:00.914Z,98583.75
2023-04-15T21:31:28.781Z,98579.97
2023-04-15T21:33:56.654Z,98589.22
2023-04-15T21:36:24.451Z,98597.59
2023-04-15T21:38:52.212Z,98592.41
2023-04-15T21:41:20.045Z,98599.25
2023-04-15T21:43:49.411Z,98593.38
2023-04-15T21:46:22.364Z,98597.16
2023-04-15T21:48:53.416Z,98592.69
2023-04-15T21:51:21.658Z,98602.53
2023-04-15T21:53:49.578Z,98602.72
2023-04-15T21:56:20.217Z,98605.81
2023-04-15T21:58:49.461Z,98604.25
2023-04-15T22:01:21.636Z,98611.38
2023-04-15T22:03:49.858Z,98610.22
2023-04-15T22:06:19.904Z,98620.88
2023-04-15T22:08:56.117Z,98621.25
2023-04-15T22:11:35.599Z,98619.88
2023-04-15T22:14:05.329Z,98622.84
2023-04-15T22:16:33.063Z,98613.72
2023-04-15T22:19:02.800Z,98628.03
2023-04-15T22:21:33.238Z,98624.81
2023-04-15T22:24:38.238Z,98626.53
2023-04-15T22:26:49.029Z,98633.03
2023-04-15T22:29:18.244Z,98639.47
2023-04-15T22:31:46.333Z,98646.78
2023-04-15T22:34:20.537Z,98636.44
2023-04-15T22:36:48.621Z,98641.72
2023-04-15T22:39:16.681Z,98637.31
2023-04-15T22:41:44.932Z,98650.31
2023-04-15T22:44:12.932Z,98652.69
2023-04-15T22:46:42.509Z,98651.81
2023-04-15T22:49:11.002Z,98659.97
2023-04-15T22:51:38.948Z,98663.53
2023-04-15T22:54:06.715Z,98657.84
2023-04-15T22:56:34.581Z,98657.88
2023-04-15T22:59:02.274Z,98657.56
2023-04-15T23:01:31.881Z,98654.84
2023-04-15T23:04:05.956Z,98667.41
2023-04-15T23:06:38.688Z,98659.34
2023-04-15T23:09:06.744Z,98658.53
2023-04-15T23:11:34.543Z,98666.09
2023-04-15T23:14:03.021Z,98662.88
2023-04-15T23:16:32.810Z,98659.38
2023-04-15T23:19:02.079Z,98672.56
2023-04-15T23:21:29.821Z,98666.09
2023-04-15T23:23:57.569Z,98671.16
2023-04-15T23:26:25.429Z,98681.06
2023-04-15T23:28:53.206Z,98677.16
2023-04-15T23:31:20.929Z,98678.25
2023-04-15T23:33:48.881Z,98679.50
2023-04-15T23:36:18.012Z,98685.31
2023-04-15T23:38:46.071Z,98691.88
2023-04-15T23:41:13.769Z,98694.22
2023-04-15T23:43:41.486Z,98682.53
2023-04-15T23:46:09.429Z,98679.59
2023-04-15T23:48:37.166Z,98685.16
2023-04-15T23:51:05.403Z,98685.72
2023-04-15T23:53:34.925Z,98692.25
2023-04-15T23:56:02.748Z,98690.22
2023-04-15T23:58:31.026Z,98689.19
